Time;durP1;ratioP1;P1;durP2;ratioP2;P2;SDS_P1;SDS_P2;PMS_P1;PMS_P2;Temp;Humidity;BMP_temperature;BMP_pressure;BME280_temperature;BME280_humidity;BME280_pressure;Samples;Min_cycle;Max_cycle;Signal;HPM_P1;HPM_P2
2022/10/06 00:02:10;;;;;;;1.62;0.80;;;;;;;;;;2440443;57;21591;-84
2022/10/06 00:04:37;;;;;;;1.67;1.02;;;;;;;;;;2440597;57;21176;-85
2022/10/06 00:07:04;;;;;;;1.77;1.10;;;;;;;;;;2440648;57;21147;-84
2022/10/06 00:09:31;;;;;;;1.95;1.10;;;;;;;;;;2220936;61;21167;-84
2022/10/06 00:11:58;;;;;;;1.37;0.70;;;;;;;;;;2440107;57;21095;-85
2022/10/06 00:14:25;;;;;;;2.67;1.33;;;;;;;;;;2221016;61;21520;-84
2022/10/06 00:16:52;;;;;;;2.60;1.10;;;;;;;;;;2440441;57;21628;-84
2022/10/06 00:19:19;;;;;;;2.97;0.95;;;;;;;;;;2440820;57;21082;-85
2022/10/06 00:21:46;;;;;;;1.50;0.80;;;;;;;;;;2440535;57;21142;-84
2022/10/06 00:24:13;;;;;;;0.80;0.80;;;;;;;;;;2221032;61;21145;-84
2022/10/06 00:26:40;;;;;;;1.45;0.57;;;;;;;;;;2220686;61;21148;-84
2022/10/06 00:29:07;;;;;;;5.05;1.45;;;;;;;;;;2221002;61;21576;-84
2022/10/06 00:31:34;;;;;;;1.30;0.82;;;;;;;;;;2440067;57;21083;-84
2022/10/06 00:34:01;;;;;;;4.62;0.70;;;;;;;;;;2220937;61;21155;-85
2022/10/06 00:36:28;;;;;;;1.17;0.77;;;;;;;;;;2440615;57;21092;-84
2022/10/06 00:38:55;;;;;;;1.08;0.70;;;;;;;;;;2221267;61;21091;-83
2022/10/06 00:41:22;;;;;;;0.60;0.50;;;;;;;;;;2440664;57;21160;-83
2022/10/06 00:43:51;;;;;;;2.05;0.80;;;;;;;;;;2221056;61;21655;-84
2022/10/06 00:46:27;;;;;;;1.55;0.80;;;;;;;;;;2220880;61;21138;-85
2022/10/06 00:48:58;;;;;;;1.17;0.77;;;;;;;;;;2221319;61;21632;-83
2022/10/06 00:51:27;;;;;;;3.10;0.57;;;;;;;;;;2440790;57;21063;-82
2022/10/06 00:53:54;;;;;;;0.75;0.60;;;;;;;;;;2221238;61;21139;-83
2022/10/06 00:56:21;;;;;;;0.95;0.57;;;;;;;;;;2221175;61;21188;-84
2022/10/06 00:58:49;;;;;;;1.55;0.60;;;;;;;;;;2221090;61;21096;-84
2022/10/06 01:01:16;;;;;;;1.42;0.60;;;;;;;;;;2221013;61;21091;-84
2022/10/06 01:03:45;;;;;;;1.25;0.80;;;;;;;;;;2221055;61;21079;-84
2022/10/06 01:06:13;;;;;;;1.62;0.60;;;;;;;;;;2220934;61;21079;-84
2022/10/06 01:08:40;;;;;;;1.45;0.70;;;;;;;;;;2220908;61;21111;-85
2022/10/06 01:11:11;;;;;;;3.15;0.77;;;;;;;;;;2220810;61;21170;-84
2022/10/06 01:13:39;;;;;;;2.40;0.60;;;;;;;;;;2440936;57;21096;-84
2022/10/06 01:16:14;;;;;;;2.30;0.68;;;;;;;;;;2220979;61;21159;-84
2022/10/06 01:18:41;;;;;;;0.90;0.77;;;;;;;;;;2440845;57;21148;-83
2022/10/06 01:21:12;;;;;;;2.25;0.70;;;;;;;;;;2221165;61;21091;-84
2022/10/06 01:23:39;;;;;;;3.97;1.52;;;;;;;;;;2440626;57;21155;-84
2022/10/06 01:26:10;;;;;;;2.12;0.75;;;;;;;;;;2440913;57;21104;-83
2022/10/06 01:28:37;;;;;;;1.08;0.62;;;;;;;;;;2221151;61;21139;-84
2022/10/06 01:31:04;;;;;;;1.20;0.60;;;;;;;;;;2440696;57;21179;-84
2022/10/06 01:33:31;;;;;;;2.08;0.80;;;;;;;;;;2440752;57;21164;-84
2022/10/06 01:35:58;;;;;;;1.95;0.82;;;;;;;;;;2221005;61;21076;-84
2022/10/06 01:38:25;;;;;;;3.20;0.88;;;;;;;;;;2440759;57;21155;-84
2022/10/06 01:40:53;;;;;;;2.67;0.65;;;;;;;;;;2221025;61;21128;-82
2022/10/06 01:43:20;;;;;;;2.35;0.80;;;;;;;;;;2221153;61;21079;-83
2022/10/06 01:45:53;;;;;;;1.02;0.62;;;;;;;;;;2221146;61;21144;-84
2022/10/06 01:48:20;;;;;;;1.60;0.65;;;;;;;;;;2441148;57;21180;-83
2022/10/06 01:50:47;;;;;;;3.87;1.30;;;;;;;;;;2220736;61;21128;-83
2022/10/06 01:53:14;;;;;;;2.40;1.20;;;;;;;;;;2220979;61;21139;-83
2022/10/06 01:55:41;;;;;;;0.80;0.70;;;;;;;;;;2440759;57;21100;-84
2022/10/06 01:58:08;;;;;;;1.90;0.90;;;;;;;;;;2221212;61;21088;-84
2022/10/06 02:00:35;;;;;;;2.25;0.70;;;;;;;;;;2221102;61;21133;-83
2022/10/06 02:03:02;;;;;;;3.37;0.70;;;;;;;;;;2440687;57;21068;-83
2022/10/06 02:05:29;;;;;;;3.75;0.82;;;;;;;;;;2221056;61;21099;-83
2022/10/06 02:07:56;;;;;;;3.40;0.60;;;;;;;;;;2440903;57;21068;-84
2022/10/06 02:10:23;;;;;;;2.53;0.80;;;;;;;;;;2221053;61;21193;-84
2022/10/06 02:12:51;;;;;;;2.87;0.88;;;;;;;;;;2221068;61;21075;-84
2022/10/06 02:15:19;;;;;;;1.58;0.60;;;;;;;;;;2220760;61;21163;-83
2022/10/06 02:17:46;;;;;;;1.23;0.80;;;;;;;;;;2440855;57;21127;-83
2022/10/06 02:20:13;;;;;;;4.93;1.20;;;;;;;;;;2220416;61;21087;-83
2022/10/06 02:22:42;;;;;;;3.62;0.80;;;;;;;;;;2220260;61;21183;-84
2022/10/06 02:25:10;;;;;;;1.55;0.80;;;;;;;;;;2440759;57;21132;-83
2022/10/06 02:27:37;;;;;;;1.70;0.75;;;;;;;;;;2440831;57;21671;-84
2022/10/06 02:30:05;;;;;;;2.45;0.82;;;;;;;;;;2220942;61;21652;-84
2022/10/06 02:32:34;;;;;;;2.25;0.82;;;;;;;;;;2440631;57;21148;-84
2022/10/06 02:35:02;;;;;;;3.92;0.75;;;;;;;;;;2221036;61;21222;-84
2022/10/06 02:37:29;;;;;;;2.00;1.05;;;;;;;;;;2440859;57;21128;-84
2022/10/06 02:39:56;;;;;;;2.62;1.15;;;;;;;;;;2440811;57;21104;-84
2022/10/06 02:42:23;;;;;;;3.30;1.23;;;;;;;;;;2220890;61;21116;-83
2022/10/06 02:44:51;;;;;;;7.22;0.95;;;;;;;;;;2440577;57;21075;-83
2022/10/06 02:47:18;;;;;;;4.00;0.90;;;;;;;;;;2441071;56;21086;-84
2022/10/06 02:49:45;;;;;;;6.55;1.12;;;;;;;;;;2440770;57;21072;-84
2022/10/06 02:52:14;;;;;;;3.70;1.05;;;;;;;;;;2220836;61;21183;-84
2022/10/06 02:54:41;;;;;;;3.40;1.02;;;;;;;;;;2440901;57;21087;-84
2022/10/06 02:57:08;;;;;;;6.18;0.77;;;;;;;;;;2221505;61;21184;-83
2022/10/06 02:59:35;;;;;;;4.10;0.90;;;;;;;;;;2221013;61;21084;-83
2022/10/06 03:02:02;;;;;;;3.10;0.90;;;;;;;;;;2221158;61;21456;-84
2022/10/06 03:04:29;;;;;;;2.35;0.95;;;;;;;;;;2441062;57;21096;-84
2022/10/06 03:06:56;;;;;;;7.62;1.37;;;;;;;;;;2221257;61;21131;-84
2022/10/06 03:09:23;;;;;;;6.55;1.10;;;;;;;;;;2221230;61;21143;-84
2022/10/06 03:11:51;;;;;;;5.18;0.70;;;;;;;;;;2440668;57;21108;-83
2022/10/06 03:14:17;;;;;;;4.15;1.00;;;;;;;;;;2221355;61;21183;-84
2022/10/06 03:16:44;;;;;;;3.90;1.25;;;;;;;;;;2440747;56;21123;-84
2022/10/06 03:19:11;;;;;;;4.18;1.40;;;;;;;;;;2441179;57;21103;-84
2022/10/06 03:21:40;;;;;;;3.40;1.37;;;;;;;;;;2440647;57;21144;-83
2022/10/06 03:24:07;;;;;;;6.82;1.58;;;;;;;;;;2441338;57;21127;-84
2022/10/06 03:26:34;;;;;;;5.95;0.98;;;;;;;;;;2441095;57;21115;-83
2022/10/06 03:29:01;;;;;;;7.00;1.10;;;;;;;;;;2221293;61;21088;-83
2022/10/06 03:31:29;;;;;;;5.75;1.17;;;;;;;;;;2440755;56;21602;-83
2022/10/06 03:33:56;;;;;;;4.72;1.33;;;;;;;;;;2441032;57;21637;-83
2022/10/06 03:36:24;;;;;;;4.40;1.20;;;;;;;;;;2221014;61;21072;-83
2022/10/06 03:38:51;;;;;;;6.30;1.10;;;;;;;;;;2221352;61;21095;-83
2022/10/06 03:41:19;;;;;;;3.12;1.40;;;;;;;;;;2220825;61;21099;-83
2022/10/06 03:43:47;;;;;;;6.12;1.48;;;;;;;;;;2441301;57;21087;-83
2022/10/06 03:46:14;;;;;;;3.67;1.15;;;;;;;;;;2220923;61;21164;-82
2022/10/06 03:48:42;;;;;;;3.42;1.00;;;;;;;;;;2441088;57;21154;-83
2022/10/06 03:51:11;;;;;;;4.80;1.60;;;;;;;;;;2220786;61;21136;-83
2022/10/06 03:53:39;;;;;;;4.70;1.17;;;;;;;;;;2441023;57;21120;-83
2022/10/06 03:56:07;;;;;;;6.03;1.55;;;;;;;;;;2440926;57;21111;-83
2022/10/06 03:58:36;;;;;;;7.15;1.30;;;;;;;;;;2440967;57;21084;-83
2022/10/06 04:01:04;;;;;;;6.25;1.30;;;;;;;;;;2440596;57;21096;-84
2022/10/06 04:03:31;;;;;;;9.48;1.45;;;;;;;;;;2221492;61;21163;-83
2022/10/06 04:05:59;;;;;;;9.35;1.60;;;;;;;;;;2221232;61;21119;-83
2022/10/06 04:08:27;;;;;;;2.35;1.20;;;;;;;;;;2221245;61;21147;-83
2022/10/06 04:10:54;;;;;;;3.53;1.35;;;;;;;;;;2220859;61;21102;-83
2022/10/06 04:13:21;;;;;;;3.53;1.25;;;;;;;;;;2221353;61;21603;-83
2022/10/06 04:15:49;;;;;;;6.43;1.50;;;;;;;;;;2440746;57;21088;-84
2022/10/06 04:18:16;;;;;;;7.82;1.92;;;;;;;;;;2221275;61;21140;-83
2022/10/06 04:20:42;;;;;;;14.13;1.77;;;;;;;;;;2220800;61;21150;-82
2022/10/06 04:23:09;;;;;;;5.50;1.70;;;;;;;;;;2440942;57;21199;-83
2022/10/06 04:25:36;;;;;;;9.90;1.58;;;;;;;;;;2440777;57;21163;-85
2022/10/06 04:28:03;;;;;;;6.03;1.73;;;;;;;;;;2440940;56;21087;-84
2022/10/06 04:30:30;;;;;;;8.52;1.40;;;;;;;;;;2221163;61;21143;-83
2022/10/06 04:32:57;;;;;;;5.68;1.23;;;;;;;;;;2440786;57;21056;-84
2022/10/06 04:35:26;;;;;;;6.00;1.45;;;;;;;;;;2440978;57;21076;-83
2022/10/06 04:37:53;;;;;;;8.75;2.10;;;;;;;;;;2221112;61;21088;-84
2022/10/06 04:40:20;;;;;;;9.85;1.40;;;;;;;;;;2221474;61;21135;-84
2022/10/06 04:42:47;;;;;;;8.02;1.45;;;;;;;;;;2440224;57;21687;-84
2022/10/06 04:45:14;;;;;;;7.85;1.85;;;;;;;;;;2441284;57;21060;-83
2022/10/06 04:47:41;;;;;;;5.03;2.40;;;;;;;;;;2440670;57;21136;-84
2022/10/06 04:50:10;;;;;;;6.25;2.12;;;;;;;;;;2221233;61;21103;-83
2022/10/06 04:52:37;;;;;;;11.95;1.92;;;;;;;;;;2220854;61;21084;-84
2022/10/06 04:55:04;;;;;;;6.28;1.40;;;;;;;;;;2221245;61;21595;-83
2022/10/06 04:57:31;;;;;;;10.38;2.45;;;;;;;;;;2220939;61;21179;-84
2022/10/06 05:02:44;;;;;;;8.40;1.90;;;;;;;;;;2220984;61;21111;-83
2022/10/06 05:05:11;;;;;;;11.50;2.45;;;;;;;;;;2221115;61;21151;-83
2022/10/06 05:07:38;;;;;;;5.95;2.15;;;;;;;;;;2220902;61;21131;-83
2022/10/06 05:10:05;;;;;;;8.98;1.52;;;;;;;;;;2221173;61;21587;-83
2022/10/06 05:12:32;;;;;;;7.75;1.42;;;;;;;;;;2440747;57;21112;-83
2022/10/06 05:14:59;;;;;;;7.72;2.08;;;;;;;;;;2441035;57;21576;-83
2022/10/06 05:17:27;;;;;;;8.57;1.60;;;;;;;;;;2221217;61;21124;-83
2022/10/06 05:19:54;;;;;;;8.57;1.92;;;;;;;;;;2221726;61;21148;-83
2022/10/06 05:22:21;;;;;;;8.45;2.00;;;;;;;;;;2221020;61;21156;-83
2022/10/06 05:24:52;;;;;;;8.57;1.60;;;;;;;;;;2440696;57;21119;-82
2022/10/06 05:27:19;;;;;;;9.65;1.52;;;;;;;;;;2220914;61;21096;-82
2022/10/06 05:29:46;;;;;;;7.32;2.20;;;;;;;;;;2440695;57;21124;-85
2022/10/06 05:32:13;;;;;;;12.60;2.30;;;;;;;;;;2440790;57;21076;-84
2022/10/06 05:34:40;;;;;;;8.82;2.05;;;;;;;;;;2440503;57;21124;-83
2022/10/06 05:37:07;;;;;;;9.73;2.00;;;;;;;;;;2221356;61;21092;-84
2022/10/06 05:39:34;;;;;;;6.75;1.42;;;;;;;;;;2440797;57;21084;-83
2022/10/06 05:42:01;;;;;;;11.12;1.60;;;;;;;;;;2440498;57;21092;-83
2022/10/06 05:44:28;;;;;;;5.70;1.50;;;;;;;;;;2221175;61;21095;-82
2022/10/06 05:46:55;;;;;;;10.57;1.90;;;;;;;;;;2440280;56;21094;-82
2022/10/06 05:49:22;;;;;;;13.18;2.20;;;;;;;;;;2220861;61;21651;-82
2022/10/06 05:51:49;;;;;;;8.88;1.70;;;;;;;;;;2439114;57;21632;-83
2022/10/06 05:54:16;;;;;;;9.55;2.78;;;;;;;;;;2221074;61;21588;-82
2022/10/06 05:56:43;;;;;;;7.97;1.90;;;;;;;;;;2220894;61;21235;-83
2022/10/06 05:59:10;;;;;;;9.80;1.40;;;;;;;;;;2440933;57;21136;-84
2022/10/06 06:01:39;;;;;;;5.90;1.67;;;;;;;;;;2440791;57;21072;-84
2022/10/06 06:04:06;;;;;;;8.73;1.98;;;;;;;;;;2440666;57;21100;-83
2022/10/06 06:06:34;;;;;;;12.00;1.55;;;;;;;;;;2220911;61;21187;-84
2022/10/06 06:09:02;;;;;;;9.73;1.75;;;;;;;;;;2220664;61;21120;-84
2022/10/06 06:11:30;;;;;;;9.85;2.33;;;;;;;;;;2440768;57;21211;-84
2022/10/06 06:13:58;;;;;;;11.32;1.95;;;;;;;;;;2221016;61;21160;-84
2022/10/06 06:16:26;;;;;;;10.98;1.73;;;;;;;;;;2221081;61;21115;-84
2022/10/06 06:18:53;;;;;;;9.30;2.30;;;;;;;;;;2220962;61;21687;-84
2022/10/06 06:21:20;;;;;;;6.87;2.00;;;;;;;;;;2440680;57;21092;-84
2022/10/06 06:23:48;;;;;;;11.50;1.98;;;;;;;;;;2220887;61;21167;-84
2022/10/06 06:26:16;;;;;;;12.30;2.05;;;;;;;;;;2440510;57;21120;-84
2022/10/06 06:28:45;;;;;;;11.40;1.70;;;;;;;;;;2440761;57;21068;-84
2022/10/06 06:31:12;;;;;;;12.30;2.30;;;;;;;;;;2440574;57;21084;-84
2022/10/06 06:33:40;;;;;;;9.50;2.08;;;;;;;;;;2221153;61;21076;-84
2022/10/06 06:36:13;;;;;;;12.05;2.10;;;;;;;;;;2440500;57;21136;-84
2022/10/06 06:38:39;;;;;;;20.00;2.10;;;;;;;;;;2441089;57;21083;-84
2022/10/06 06:41:13;;;;;;;4.85;1.60;;;;;;;;;;2440377;57;21056;-84
2022/10/06 06:43:41;;;;;;;7.75;2.33;;;;;;;;;;2221290;61;21084;-84
2022/10/06 06:46:08;;;;;;;7.87;2.30;;;;;;;;;;2441102;57;21080;-85
2022/10/06 06:48:36;;;;;;;7.35;1.77;;;;;;;;;;2220973;61;21147;-84
2022/10/06 06:51:04;;;;;;;9.48;2.35;;;;;;;;;;2220822;61;21088;-84
2022/10/06 06:53:31;;;;;;;9.15;2.08;;;;;;;;;;2221043;61;21087;-84
2022/10/06 06:55:58;;;;;;;11.35;1.90;;;;;;;;;;2221263;61;21085;-84
2022/10/06 06:58:25;;;;;;;9.15;2.15;;;;;;;;;;2221288;61;21172;-84
2022/10/06 07:00:52;;;;;;;8.07;1.77;;;;;;;;;;2220691;61;21100;-85
2022/10/06 07:03:20;;;;;;;13.10;2.40;;;;;;;;;;2221370;61;21674;-84
2022/10/06 07:05:47;;;;;;;8.10;2.33;;;;;;;;;;2440951;57;21071;-83
2022/10/06 07:08:15;;;;;;;20.17;2.83;;;;;;;;;;2441076;57;21695;-84
2022/10/06 07:10:43;;;;;;;13.23;1.98;;;;;;;;;;2440816;57;21076;-82
2022/10/06 07:13:14;;;;;;;10.07;2.95;;;;;;;;;;2441386;57;21120;-84
2022/10/06 07:26:44;;;;;;;8.65;1.87;;;;;;;;;;2221090;61;21570;-84
2022/10/06 07:29:11;;;;;;;13.38;2.42;;;;;;;;;;2221223;61;21595;-82
2022/10/06 07:31:39;;;;;;;10.68;1.95;;;;;;;;;;2220986;61;21142;-82
2022/10/06 07:34:07;;;;;;;11.80;2.62;;;;;;;;;;2441252;57;21080;-82
2022/10/06 07:36:34;;;;;;;14.75;1.85;;;;;;;;;;2221003;61;21092;-82
2022/10/06 07:39:01;;;;;;;7.37;2.00;;;;;;;;;;2441015;57;21095;-83
2022/10/06 07:41:30;;;;;;;11.38;1.92;;;;;;;;;;2440811;57;21101;-83
2022/10/06 07:43:58;;;;;;;8.50;1.83;;;;;;;;;;2441056;57;21155;-83
2022/10/06 07:46:25;;;;;;;10.40;2.20;;;;;;;;;;2440727;57;21112;-83
2022/10/06 07:48:52;;;;;;;7.18;1.80;;;;;;;;;;2221204;61;21155;-83
2022/10/06 07:51:19;;;;;;;10.27;2.50;;;;;;;;;;2220890;61;21754;-83
2022/10/06 07:53:49;;;;;;;10.65;2.25;;;;;;;;;;2221298;61;21088;-82
2022/10/06 07:56:19;;;;;;;10.77;1.60;;;;;;;;;;2439462;57;21156;-82
2022/10/06 07:58:46;;;;;;;8.80;2.00;;;;;;;;;;2440256;57;21139;-83
2022/10/06 08:01:14;;;;;;;10.43;2.20;;;;;;;;;;2440606;57;21091;-83
2022/10/06 08:03:41;;;;;;;10.82;1.52;;;;;;;;;;2441018;57;21095;-84
2022/10/06 08:06:11;;;;;;;9.90;2.60;;;;;;;;;;2220741;61;21251;-83
2022/10/06 08:08:38;;;;;;;11.50;2.28;;;;;;;;;;2440651;57;21099;-84
2022/10/06 08:11:06;;;;;;;10.32;1.87;;;;;;;;;;2220809;61;21092;-83
2022/10/06 08:13:35;;;;;;;6.60;1.75;;;;;;;;;;2221185;61;21147;-83
2022/10/06 08:16:04;;;;;;;10.40;1.83;;;;;;;;;;2221071;61;21072;-84
2022/10/06 08:18:31;;;;;;;8.85;2.22;;;;;;;;;;2221162;61;21596;-83
2022/10/06 08:20:58;;;;;;;10.18;2.10;;;;;;;;;;2221197;61;21088;-83
2022/10/06 08:23:25;;;;;;;14.45;2.30;;;;;;;;;;2220894;61;21084;-83
2022/10/06 08:25:55;;;;;;;11.30;1.83;;;;;;;;;;2221348;61;21087;-83
2022/10/06 08:28:23;;;;;;;11.52;2.20;;;;;;;;;;2221026;61;21087;-83
2022/10/06 08:30:51;;;;;;;7.93;1.67;;;;;;;;;;2440420;57;21088;-83
2022/10/06 08:33:19;;;;;;;14.32;2.40;;;;;;;;;;2440694;57;21100;-82
2022/10/06 08:35:46;;;;;;;12.73;2.22;;;;;;;;;;2221367;61;21108;-82
2022/10/06 08:38:13;;;;;;;9.60;1.73;;;;;;;;;;2221189;61;21127;-82
2022/10/06 08:40:42;;;;;;;6.72;1.85;;;;;;;;;;2440657;57;21167;-82
2022/10/06 08:43:13;;;;;;;7.87;2.05;;;;;;;;;;2220938;61;21099;-82
2022/10/06 08:45:43;;;;;;;12.40;3.12;;;;;;;;;;2221051;61;21095;-82
2022/10/06 08:48:12;;;;;;;11.07;2.40;;;;;;;;;;2440639;56;21140;-83
2022/10/06 08:50:51;;;;;;;7.68;1.98;;;;;;;;;;2220938;61;21104;-83
2022/10/06 08:53:22;;;;;;;9.77;1.95;;;;;;;;;;2441015;57;21125;-82
2022/10/06 08:55:52;;;;;;;10.38;2.35;;;;;;;;;;2440873;57;21423;-82
2022/10/06 08:58:29;;;;;;;12.32;2.15;;;;;;;;;;2221183;61;21124;-84
2022/10/06 09:00:56;;;;;;;7.12;1.58;;;;;;;;;;2220999;61;21080;-83
2022/10/06 09:03:27;;;;;;;9.07;2.37;;;;;;;;;;2440779;57;21140;-82
2022/10/06 09:05:56;;;;;;;11.32;2.05;;;;;;;;;;2440937;57;21091;-83
2022/10/06 09:08:34;;;;;;;6.12;2.12;;;;;;;;;;2221138;61;21095;-83
2022/10/06 09:11:06;;;;;;;13.30;1.90;;;;;;;;;;2440411;57;21087;-83
2022/10/06 09:13:35;;;;;;;15.27;2.23;;;;;;;;;;2221288;61;21179;-82
2022/10/06 09:16:06;;;;;;;9.30;2.47;;;;;;;;;;2220955;61;21745;-83
2022/10/06 09:18:35;;;;;;;11.88;2.00;;;;;;;;;;2220828;61;21135;-84
2022/10/06 09:21:02;;;;;;;10.80;2.55;;;;;;;;;;2440729;57;21099;-83
2022/10/06 09:23:46;;;;;;;11.35;1.67;;;;;;;;;;2220828;61;21084;-83
2022/10/06 09:26:14;;;;;;;13.27;2.25;;;;;;;;;;2440690;57;21167;-82
2022/10/06 09:28:45;;;;;;;9.93;2.33;;;;;;;;;;2441013;57;21091;-82
2022/10/06 09:31:19;;;;;;;9.35;2.92;;;;;;;;;;2440615;57;21060;-83
2022/10/06 09:33:47;;;;;;;9.77;2.08;;;;;;;;;;2221005;61;21122;-83
2022/10/06 09:36:14;;;;;;;7.55;2.05;;;;;;;;;;2221034;61;21080;-82
2022/10/06 09:38:47;;;;;;;7.15;1.90;;;;;;;;;;2220976;61;21257;-83
2022/10/06 09:41:14;;;;;;;12.68;2.03;;;;;;;;;;2440772;57;21146;-83
2022/10/06 09:43:51;;;;;;;9.38;1.85;;;;;;;;;;2220947;61;21131;-83
2022/10/06 09:46:19;;;;;;;11.85;2.17;;;;;;;;;;2221291;61;21084;-84
2022/10/06 09:48:46;;;;;;;10.07;1.75;;;;;;;;;;2440747;56;21088;-81
2022/10/06 09:51:14;;;;;;;6.28;1.52;;;;;;;;;;2221109;61;21170;-83
2022/10/06 09:53:42;;;;;;;7.93;1.77;;;;;;;;;;2221243;61;21147;-83
2022/10/06 09:56:13;;;;;;;10.95;1.87;;;;;;;;;;2221257;61;21156;-83
2022/10/06 09:58:52;;;;;;;6.12;1.52;;;;;;;;;;2221166;61;21080;-82
2022/10/06 10:01:22;;;;;;;5.72;2.12;;;;;;;;;;2220973;61;21583;-83
2022/10/06 10:03:50;;;;;;;14.63;2.20;;;;;;;;;;2221366;61;21342;-83
2022/10/06 10:06:26;;;;;;;11.98;2.00;;;;;;;;;;2221144;61;21107;-83
2022/10/06 10:09:12;;;;;;;7.35;1.87;;;;;;;;;;2221135;61;21139;-83
2022/10/06 10:14:25;;;;;;;20.90;2.25;;;;;;;;;;2221080;61;21015;-83
2022/10/06 10:16:52;;;;;;;7.43;1.98;;;;;;;;;;2220875;61;21091;-85
2022/10/06 10:19:23;;;;;;;15.52;2.15;;;;;;;;;;2440738;56;21083;-83
2022/10/06 10:21:50;;;;;;;7.78;1.58;;;;;;;;;;2220805;61;21163;-83
2022/10/06 10:24:22;;;;;;;20.25;2.70;;;;;;;;;;2220970;61;21088;-83
2022/10/06 10:26:53;;;;;;;8.60;1.62;;;;;;;;;;2441184;57;21084;-83
2022/10/06 10:29:43;;;;;;;9.07;2.03;;;;;;;;;;2440889;57;21087;-83
2022/10/06 10:32:14;;;;;;;14.05;2.55;;;;;;;;;;2210917;61;21088;-83
2022/10/06 10:35:00;;;;;;;7.15;1.95;;;;;;;;;;2441220;57;21072;-83
2022/10/06 10:37:31;;;;;;;10.77;1.80;;;;;;;;;;2440846;57;21085;-83
2022/10/06 10:40:00;;;;;;;11.63;2.05;;;;;;;;;;2220684;61;21168;-83
2022/10/06 10:42:30;;;;;;;10.65;1.83;;;;;;;;;;2440624;57;21092;-83
2022/10/06 10:44:59;;;;;;;10.70;1.80;;;;;;;;;;2441016;57;21095;-83
2022/10/06 10:47:28;;;;;;;11.52;2.47;;;;;;;;;;2221230;61;21142;-82
2022/10/06 10:49:59;;;;;;;12.37;2.35;;;;;;;;;;2440823;56;21080;-83
2022/10/06 10:52:29;;;;;;;8.07;1.92;;;;;;;;;;2220834;61;21160;-82
2022/10/06 10:55:03;;;;;;;11.80;2.30;;;;;;;;;;2440989;57;21076;-82
2022/10/06 10:57:34;;;;;;;8.75;1.87;;;;;;;;;;2441346;57;21163;-85
2022/10/06 11:00:03;;;;;;;10.07;1.80;;;;;;;;;;2221198;61;21100;-84
2022/10/06 11:02:32;;;;;;;11.57;2.08;;;;;;;;;;2220972;61;21075;-84
2022/10/06 11:05:02;;;;;;;10.93;2.30;;;;;;;;;;2441029;57;21080;-84
2022/10/06 11:07:32;;;;;;;8.05;1.70;;;;;;;;;;2221286;61;21096;-83
2022/10/06 11:10:02;;;;;;;11.43;1.83;;;;;;;;;;2440820;57;21096;-84
2022/10/06 11:12:37;;;;;;;5.82;1.60;;;;;;;;;;2220845;61;21172;-83
2022/10/06 11:15:07;;;;;;;7.43;1.73;;;;;;;;;;2439629;57;21106;-82
2022/10/06 11:17:43;;;;;;;6.03;1.83;;;;;;;;;;2440021;57;21151;-83
2022/10/06 11:20:15;;;;;;;12.13;1.67;;;;;;;;;;2441028;57;21162;-84
2022/10/06 11:22:44;;;;;;;6.05;1.70;;;;;;;;;;2220806;61;21100;-84
2022/10/06 11:25:18;;;;;;;9.05;1.73;;;;;;;;;;2440646;57;21080;-84
2022/10/06 11:27:51;;;;;;;11.27;1.83;;;;;;;;;;2221157;61;21076;-84
2022/10/06 11:30:19;;;;;;;8.43;1.80;;;;;;;;;;2441073;57;21100;-84
2022/10/06 11:32:53;;;;;;;6.62;1.98;;;;;;;;;;2440693;57;21072;-84
2022/10/06 11:35:21;;;;;;;5.53;1.52;;;;;;;;;;2220983;61;21126;-84
2022/10/06 11:37:53;;;;;;;7.28;1.67;;;;;;;;;;2440978;57;21620;-84
2022/10/06 11:40:48;;;;;;;7.40;1.70;;;;;;;;;;2440599;57;21155;-84
2022/10/06 11:43:19;;;;;;;7.97;1.45;;;;;;;;;;2208474;61;21084;-84
2022/10/06 11:45:51;;;;;;;8.80;1.48;;;;;;;;;;2221333;61;21543;-83
2022/10/06 11:48:24;;;;;;;7.60;1.60;;;;;;;;;;2440956;57;21079;-83
2022/10/06 11:50:54;;;;;;;2.85;1.25;;;;;;;;;;2220907;61;21144;-83
2022/10/06 11:53:27;;;;;;;8.30;1.75;;;;;;;;;;2221183;61;21095;-83
2022/10/06 11:55:53;;;;;;;;;;;;;;;;;;2444451;57;21164;-83
2022/10/06 11:58:20;;;;;;;11.18;1.50;;;;;;;;;;2221090;61;20136;-83
2022/10/06 12:00:51;;;;;;;8.00;1.87;;;;;;;;;;2220748;61;21075;-83
2022/10/06 12:03:47;;;;;;;7.78;1.65;;;;;;;;;;2440892;57;21140;-83
2022/10/06 12:06:31;;;;;;;7.00;1.67;;;;;;;;;;2203421;61;21080;-83
2022/10/06 12:08:59;;;;;;;8.70;1.77;;;;;;;;;;2221099;61;21072;-84
2022/10/06 12:11:38;;;;;;;7.57;1.62;;;;;;;;;;2220928;61;21075;-84
2022/10/06 12:14:09;;;;;;;7.20;1.92;;;;;;;;;;2221204;61;21110;-84
2022/10/06 12:16:38;;;;;;;6.30;1.65;;;;;;;;;;2440878;57;21132;-83
2022/10/06 12:19:15;;;;;;;5.70;1.20;;;;;;;;;;2440974;57;21143;-83
2022/10/06 12:21:46;;;;;;;9.75;1.87;;;;;;;;;;2440553;57;21084;-83
2022/10/06 12:24:23;;;;;;;6.22;1.27;;;;;;;;;;2221282;61;21096;-84
2022/10/06 12:26:54;;;;;;;6.12;1.92;;;;;;;;;;2221233;61;21088;-84
2022/10/06 12:29:30;;;;;;;6.43;1.42;;;;;;;;;;2440980;57;21147;-84
2022/10/06 12:32:04;;;;;;;9.15;1.45;;;;;;;;;;2220901;61;21136;-84
2022/10/06 12:34:53;;;;;;;8.18;2.00;;;;;;;;;;2440981;57;21100;-82
2022/10/06 12:37:21;;;;;;;7.57;1.33;;;;;;;;;;2428045;57;21139;-83
2022/10/06 12:39:48;;;;;;;9.35;1.75;;;;;;;;;;2440916;57;21330;-84
2022/10/06 12:42:19;;;;;;;5.75;1.20;;;;;;;;;;2440749;57;21072;-83
2022/10/06 12:44:49;;;;;;;4.18;1.23;;;;;;;;;;2221183;61;21080;-84
2022/10/06 12:47:20;;;;;;;5.00;1.20;;;;;;;;;;2221248;61;21147;-83
2022/10/06 12:49:49;;;;;;;5.55;1.20;;;;;;;;;;2440860;56;21579;-83
2022/10/06 12:52:47;;;;;;;3.55;1.42;;;;;;;;;;2220613;61;21099;-84
2022/10/06 12:55:33;;;;;;;6.75;1.42;;;;;;;;;;2220978;61;21075;-83
2022/10/06 12:58:00;;;;;;;5.35;1.45;;;;;;;;;;2440897;57;21088;-82
2022/10/06 13:00:33;;;;;;;7.10;1.40;;;;;;;;;;2220949;61;21103;-83
2022/10/06 13:03:02;;;;;;;5.97;1.55;;;;;;;;;;2221186;61;21099;-83
2022/10/06 13:05:30;;;;;;;4.20;1.17;;;;;;;;;;2440770;57;21157;-84
2022/10/06 13:07:57;;;;;;;9.77;1.27;;;;;;;;;;2220905;61;21183;-83
2022/10/06 13:10:25;;;;;;;7.07;2.10;;;;;;;;;;2440899;57;21132;-83
2022/10/06 13:12:54;;;;;;;5.65;1.62;;;;;;;;;;2220888;61;21084;-83
2022/10/06 13:15:22;;;;;;;15.70;4.18;;;;;;;;;;2221163;61;21084;-83
2022/10/06 13:17:51;;;;;;;5.50;1.40;;;;;;;;;;2221118;61;21163;-83
2022/10/06 13:20:24;;;;;;;5.82;1.33;;;;;;;;;;2440934;57;21135;-83
2022/10/06 13:22:58;;;;;;;8.02;1.60;;;;;;;;;;2440647;57;21652;-83
2022/10/06 13:25:33;;;;;;;5.72;1.15;;;;;;;;;;2441018;57;21087;-83
2022/10/06 13:28:01;;;;;;;5.57;1.20;;;;;;;;;;2220957;61;21111;-83
2022/10/06 13:30:28;;;;;;;9.07;1.87;;;;;;;;;;2221149;61;21678;-83
2022/10/06 13:32:55;;;;;;;4.95;1.45;;;;;;;;;;2220557;61;21131;-82
2022/10/06 13:35:24;;;;;;;4.20;1.30;;;;;;;;;;2220986;61;21075;-83
2022/10/06 13:37:51;;;;;;;6.10;1.60;;;;;;;;;;2220960;61;21103;-83
2022/10/06 13:40:27;;;;;;;10.95;2.22;;;;;;;;;;2440660;57;21115;-84
2022/10/06 13:42:55;;;;;;;4.22;1.05;;;;;;;;;;2440502;57;21072;-84
2022/10/06 13:45:23;;;;;;;5.60;1.52;;;;;;;;;;2440882;57;21095;-84
2022/10/06 13:48:01;;;;;;;4.53;0.80;;;;;;;;;;2221145;61;21163;-83
2022/10/06 13:50:28;;;;;;;7.30;1.73;;;;;;;;;;2220913;61;21135;-83
2022/10/06 13:52:55;;;;;;;4.60;1.10;;;;;;;;;;2221075;61;21624;-84
2022/10/06 13:55:23;;;;;;;6.20;1.40;;;;;;;;;;2440561;57;21099;-84
2022/10/06 13:57:52;;;;;;;4.97;1.20;;;;;;;;;;2221222;61;21084;-84
2022/10/06 14:00:20;;;;;;;4.85;1.62;;;;;;;;;;2440689;57;21088;-83
2022/10/06 14:02:49;;;;;;;7.03;1.20;;;;;;;;;;2221047;61;21151;-83
2022/10/06 14:05:20;;;;;;;5.87;1.15;;;;;;;;;;2441210;57;21144;-83
2022/10/06 14:07:48;;;;;;;5.10;1.15;;;;;;;;;;2221371;61;21596;-83
2022/10/06 14:10:15;;;;;;;7.40;1.67;;;;;;;;;;2221361;61;21080;-84
2022/10/06 14:12:43;;;;;;;5.20;1.10;;;;;;;;;;2440945;57;21092;-82
2022/10/06 14:15:16;;;;;;;6.45;1.50;;;;;;;;;;2221138;61;21068;-83
2022/10/06 14:17:43;;;;;;;9.03;1.60;;;;;;;;;;2221861;61;21084;-83
2022/10/06 14:20:29;;;;;;;8.68;1.35;;;;;;;;;;2439938;57;21183;-84
2022/10/06 14:22:56;;;;;;;3.87;1.30;;;;;;;;;;2220781;61;21240;-85
2022/10/06 14:25:24;;;;;;;7.72;1.42;;;;;;;;;;2221042;61;21119;-84
2022/10/06 14:27:51;;;;;;;13.25;2.67;;;;;;;;;;2439454;57;21159;-83
2022/10/06 14:30:18;;;;;;;7.95;1.45;;;;;;;;;;2441500;57;21083;-84
2022/10/06 14:32:45;;;;;;;4.00;1.10;;;;;;;;;;2221043;61;21671;-84
2022/10/06 14:35:12;;;;;;;3.67;1.15;;;;;;;;;;2440662;57;21083;-83
2022/10/06 14:37:39;;;;;;;5.35;1.50;;;;;;;;;;2221034;61;21092;-84
2022/10/06 14:40:09;;;;;;;5.35;1.42;;;;;;;;;;2440414;57;21063;-83
2022/10/06 14:42:36;;;;;;;6.07;1.87;;;;;;;;;;2221011;61;21100;-84
2022/10/06 14:45:03;;;;;;;5.93;1.77;;;;;;;;;;2440510;57;21108;-83
2022/10/06 14:47:30;;;;;;;4.85;1.17;;;;;;;;;;2440333;57;21096;-83
2022/10/06 14:49:57;;;;;;;4.72;1.25;;;;;;;;;;2220705;61;21096;-83
2022/10/06 14:52:24;;;;;;;6.03;1.40;;;;;;;;;;2220511;61;21171;-84
2022/10/06 14:54:51;;;;;;;5.25;1.37;;;;;;;;;;2220888;61;21136;-83
2022/10/06 14:57:19;;;;;;;10.65;1.50;;;;;;;;;;2221291;61;21172;-84
2022/10/06 14:59:46;;;;;;;6.87;1.30;;;;;;;;;;2441114;57;21191;-84
2022/10/06 15:02:13;;;;;;;3.30;1.02;;;;;;;;;;2440748;57;21095;-84
2022/10/06 15:04:40;;;;;;;4.75;1.30;;;;;;;;;;2221009;61;21103;-84
2022/10/06 15:09:52;;;;;;;3.92;1.00;;;;;;;;;;2221312;61;21560;-84
2022/10/06 15:12:19;;;;;;;5.75;1.50;;;;;;;;;;2220780;61;21687;-84